Terminal Aerodrome Forecast
Issued by NWS

Home | Current Version | Previous Version | Text Only | Print | Product List | Glossary On
Versions: 1 2 3 4 5 6 7 8 9 10 11 12 13 14 15 16 17 18 19 20 21 22 23 24 25 26 27
000
FTUS41 KCTP 200932 AAA
TAFAOO
TAF AMD
KAOO 200932Z 2010/2106 10002KT 3SM BR BKN250
      TEMPO 2010/2013 1SM BR
     FM201400 13005KT 2SM -RA BR OVC005=

USA.gov is the U.S. government's official web portal to all federal, state and local government web resources and services.